createdAt,value
2023-05-07T00:01:36.904Z,38.15
2023-05-07T00:04:05.332Z,34.58
2023-05-07T00:06:34.572Z,33.47
2023-05-07T00:09:05.303Z,35.45
2023-05-07T00:11:34.133Z,35.75
2023-05-07T00:14:02.959Z,29.75
2023-05-07T00:16:31.008Z,31.20
2023-05-07T00:18:59.061Z,35.40
2023-05-07T00:21:28.160Z,34.17
2023-05-07T00:23:56.218Z,33.17
2023-05-07T00:26:25.685Z,35.35
2023-05-07T00:28:53.657Z,31.70
2023-05-07T00:31:21.692Z,33.95
2023-05-07T00:33:49.627Z,36.78
2023-05-07T00:36:17.548Z,35.72
2023-05-07T00:38:45.532Z,34.08
2023-05-07T00:41:13.522Z,33.03
2023-05-07T00:43:43.399Z,37.35
2023-05-07T00:46:12.764Z,34.70
2023-05-07T00:48:40.924Z,35.63
2023-05-07T00:51:08.875Z,36.60
2023-05-07T00:53:37.255Z,34.03
2023-05-07T00:56:07.397Z,38.15
2023-05-07T00:58:35.857Z,37.00
2023-05-07T01:01:05.457Z,33.22
2023-05-07T01:03:33.419Z,33.58
2023-05-07T01:06:03.295Z,35.28
2023-05-07T01:08:33.069Z,43.15
2023-05-07T01:11:02.530Z,39.17
2023-05-07T01:13:31.012Z,36.33
2023-05-07T01:15:59.056Z,35.35
2023-05-07T01:18:29.861Z,39.63
2023-05-07T01:21:00.230Z,40.30
2023-05-07T01:23:30.208Z,38.47
2023-05-07T01:25:58.431Z,35.90
2023-05-07T01:28:26.791Z,39.70
2023-05-07T01:30:58.030Z,37.67
2023-05-07T01:33:26.666Z,39.65
2023-05-07T01:35:55.823Z,36.92
2023-05-07T01:38:24.529Z,35.40
2023-05-07T01:40:54.810Z,38.47
2023-05-07T01:43:22.881Z,38.00
2023-05-07T01:45:51.200Z,40.85
2023-05-07T01:48:19.943Z,40.00
2023-05-07T01:50:49.261Z,38.50
2023-05-07T01:53:17.311Z,37.45
2023-05-07T01:55:46.280Z,42.13
2023-05-07T01:58:15.712Z,40.67
2023-05-07T02:00:43.746Z,39.22
2023-05-07T02:03:11.845Z,43.08
2023-05-07T02:05:39.972Z,40.58
2023-05-07T02:08:07.965Z,37.35
2023-05-07T02:10:37.055Z,35.08
2023-05-07T02:13:05.100Z,35.97
2023-05-07T02:15:34.507Z,37.65
2023-05-07T02:18:04.836Z,36.22
2023-05-07T02:20:32.951Z,32.22
2023-05-07T02:23:01.310Z,33.42
2023-05-07T02:25:30.210Z,34.40
2023-05-07T02:27:58.338Z,32.47
2023-05-07T02:30:27.196Z,34.58
2023-05-07T02:32:56.608Z,32.13
2023-05-07T02:35:25.958Z,36.42
2023-05-07T02:37:53.998Z,35.97
2023-05-07T02:40:22.249Z,34.67
2023-05-07T02:42:50.242Z,37.28
2023-05-07T02:45:18.415Z,34.95
2023-05-07T02:47:46.618Z,36.97
2023-05-07T02:50:16.113Z,36.22
2023-05-07T02:52:44.151Z,34.95
2023-05-07T02:55:12.824Z,35.03
2023-05-07T02:57:40.727Z,36.00
2023-05-07T03:00:16.633Z,36.13
2023-05-07T03:02:44.783Z,37.88
2023-05-07T03:05:13.695Z,33.88
2023-05-07T03:07:46.137Z,30.55
2023-05-07T03:10:14.249Z,35.97
2023-05-07T03:12:42.398Z,34.35
2023-05-07T03:15:12.400Z,34.55
2023-05-07T03:17:40.402Z,37.80
2023-05-07T03:20:11.100Z,37.28
2023-05-07T03:22:39.443Z,34.05
2023-05-07T03:25:10.818Z,39.47
2023-05-07T03:27:39.073Z,35.50
2023-05-07T03:30:08.805Z,32.83
2023-05-07T03:32:37.380Z,36.30
2023-05-07T03:35:05.841Z,38.00
2023-05-07T03:37:33.899Z,40.80
2023-05-07T03:40:01.849Z,38.67
2023-05-07T03:42:31.302Z,37.63
2023-05-07T03:44:59.276Z,34.25
2023-05-07T03:47:27.302Z,35.15
2023-05-07T03:49:55.936Z,33.47
2023-05-07T03:52:26.903Z,34.58
2023-05-07T03:54:55.071Z,34.28
2023-05-07T03:57:23.204Z,34.83
2023-05-07T03:59:52.540Z,38.92
2023-05-07T04:02:20.566Z,33.13
2023-05-07T04:04:50.829Z,35.42
2023-05-07T04:07:19.664Z,36.40
2023-05-07T04:09:47.639Z,34.65
2023-05-07T04:12:15.636Z,32.78
2023-05-07T04:14:43.616Z,33.60
2023-05-07T04:17:13.021Z,29.83
2023-05-07T04:19:41.039Z,31.85
2023-05-07T04:22:09.017Z,31.30
2023-05-07T04:24:37.027Z,30.77
2023-05-07T04:27:05.491Z,32.95
2023-05-07T04:29:33.454Z,29.25
2023-05-07T04:32:01.586Z,29.63
2023-05-07T04:34:30.961Z,31.25
2023-05-07T04:37:01.573Z,31.35
2023-05-07T04:39:29.577Z,33.67
2023-05-07T04:41:57.722Z,30.42
2023-05-07T04:44:26.030Z,31.63
2023-05-07T04:46:54.034Z,29.98
2023-05-07T04:49:22.047Z,27.85
2023-05-07T04:51:51.408Z,27.90
2023-05-07T04:54:19.409Z,31.10
2023-05-07T04:56:47.353Z,30.80
2023-05-07T04:59:15.518Z,27.73
2023-05-07T05:01:43.494Z,30.52
2023-05-07T05:04:12.336Z,27.67
2023-05-07T05:06:40.416Z,33.42
2023-05-07T05:09:10.051Z,34.60
2023-05-07T05:11:38.034Z,28.88
2023-05-07T05:14:06.345Z,30.15
2023-05-07T05:16:34.449Z,30.08
2023-05-07T05:19:03.944Z,29.77
2023-05-07T05:21:31.878Z,28.65
2023-05-07T05:24:00.002Z,30.33
2023-05-07T05:26:29.373Z,27.63
2023-05-07T05:28:57.367Z,31.33
2023-05-07T05:31:25.376Z,28.05
2023-05-07T05:33:53.354Z,29.63
2023-05-07T05:36:21.373Z,28.58
2023-05-07T05:38:49.278Z,30.48
2023-05-07T05:41:17.233Z,27.98
2023-05-07T05:43:46.521Z,30.17
2023-05-07T05:46:14.560Z,28.88
2023-05-07T05:48:42.530Z,28.65
2023-05-07T05:51:10.487Z,30.20
2023-05-07T05:53:38.428Z,28.30
2023-05-07T05:56:07.139Z,32.05
2023-05-07T05:58:35.146Z,29.95
2023-05-07T06:01:04.892Z,27.38
2023-05-07T06:03:33.451Z,28.23
2023-05-07T06:06:01.995Z,26.02
2023-05-07T06:08:31.819Z,28.13
2023-05-07T06:11:00.400Z,27.48
2023-05-07T06:13:28.469Z,26.48
2023-05-07T06:15:56.392Z,26.00
2023-05-07T06:18:26.026Z,24.67
2023-05-07T06:20:54.162Z,24.63
2023-05-07T06:23:22.886Z,25.98
2023-05-07T06:25:51.983Z,24.30
2023-05-07T06:28:20.025Z,24.42
2023-05-07T06:30:48.292Z,27.02
2023-05-07T06:33:16.245Z,29.35
2023-05-07T06:35:46.027Z,27.90
2023-05-07T06:38:13.967Z,26.13
2023-05-07T06:40:41.984Z,24.33
2023-05-07T06:43:09.956Z,25.88
2023-05-07T06:45:37.910Z,24.80
2023-05-07T06:48:06.485Z,23.73
2023-05-07T06:50:34.573Z,22.67
2023-05-07T06:53:04.296Z,23.48
2023-05-07T06:55:32.865Z,23.65
2023-05-07T06:58:02.172Z,28.08
2023-05-07T07:00:30.385Z,24.73
2023-05-07T07:02:58.601Z,24.50
2023-05-07T07:05:26.506Z,23.90
2023-05-07T07:07:54.589Z,22.88
2023-05-07T07:10:24.407Z,23.02
2023-05-07T07:12:53.472Z,21.90
2023-05-07T07:15:22.590Z,22.63
2023-05-07T07:17:51.002Z,23.05
2023-05-07T07:20:19.061Z,21.70
2023-05-07T07:22:47.085Z,22.92
2023-05-07T07:25:15.052Z,22.02
2023-05-07T07:27:44.347Z,22.58
2023-05-07T07:30:12.924Z,22.75
2023-05-07T07:32:41.044Z,22.58
2023-05-07T07:35:09.909Z,21.75
2023-05-07T07:37:37.934Z,21.05
2023-05-07T07:40:06.594Z,20.52
2023-05-07T07:42:34.532Z,21.33
2023-05-07T07:45:04.149Z,19.48
2023-05-07T07:47:32.149Z,22.02
2023-05-07T07:50:00.169Z,20.70
2023-05-07T07:52:28.201Z,18.90
2023-05-07T07:54:56.112Z,19.67
2023-05-07T07:57:24.078Z,20.40
2023-05-07T07:59:52.349Z,19.13
2023-05-07T08:02:21.718Z,19.17
2023-05-07T08:04:49.665Z,19.40
2023-05-07T08:07:19.427Z,18.45
2023-05-07T08:09:47.328Z,19.63
2023-05-07T08:12:15.440Z,18.63
2023-05-07T08:14:43.566Z,19.77
2023-05-07T08:17:11.799Z,18.27
2023-05-07T08:19:41.155Z,18.38
2023-05-07T08:22:09.237Z,19.40
2023-05-07T08:24:37.183Z,17.55
2023-05-07T08:27:05.296Z,19.23
2023-05-07T08:29:33.372Z,15.98
2023-05-07T08:32:01.402Z,16.15
2023-05-07T08:34:29.387Z,17.20
2023-05-07T08:36:58.726Z,15.85
2023-05-07T08:39:26.776Z,15.27
2023-05-07T08:41:58.089Z,13.63
2023-05-07T08:44:29.181Z,13.87
2023-05-07T08:46:58.749Z,13.23
2023-05-07T08:49:26.713Z,11.95
2023-05-07T08:51:54.926Z,14.43
2023-05-07T08:54:24.702Z,15.10
2023-05-07T08:56:52.714Z,12.77
2023-05-07T08:59:20.605Z,14.15
2023-05-07T09:01:48.738Z,14.48
2023-05-07T09:04:16.825Z,14.32
2023-05-07T09:06:44.879Z,13.40
2023-05-07T09:09:19.414Z,13.35
2023-05-07T09:11:48.742Z,13.55
2023-05-07T09:14:17.724Z,12.98
2023-05-07T09:16:45.773Z,11.75
2023-05-07T09:19:13.777Z,11.90
2023-05-07T09:21:41.695Z,17.73
2023-05-07T09:24:09.656Z,13.57
2023-05-07T09:26:37.562Z,13.70
2023-05-07T09:29:06.991Z,11.02
2023-05-07T09:31:38.252Z,14.70
2023-05-07T09:34:06.893Z,13.87
2023-05-07T09:36:34.893Z,14.57
2023-05-07T09:39:02.907Z,12.95
2023-05-07T09:41:32.931Z,16.55
2023-05-07T09:44:01.317Z,14.27
2023-05-07T09:46:33.091Z,13.98
2023-05-07T09:49:04.271Z,11.43
2023-05-07T09:51:36.123Z,13.57
2023-05-07T09:54:04.854Z,11.40
2023-05-07T09:56:33.315Z,14.40
2023-05-07T09:59:02.797Z,12.02
2023-05-07T10:01:33.572Z,12.93
2023-05-07T10:04:04.494Z,14.32
2023-05-07T10:06:32.610Z,14.10
2023-05-07T10:09:02.279Z,12.80
2023-05-07T10:11:30.424Z,13.55
2023-05-07T10:13:58.832Z,14.25
2023-05-07T10:16:29.244Z,14.02
2023-05-07T10:18:59.773Z,13.93
2023-05-07T10:21:29.725Z,13.40
2023-05-07T10:24:01.386Z,13.55
2023-05-07T10:26:31.924Z,11.57
2023-05-07T10:29:04.098Z,12.80
2023-05-07T10:34:14.306Z,12.88
2023-05-07T10:36:43.328Z,13.07
2023-05-07T10:39:12.213Z,13.68
2023-05-07T10:41:40.798Z,14.13
2023-05-07T10:44:08.845Z,12.77
2023-05-07T10:46:36.917Z,14.13
2023-05-07T10:49:17.201Z,11.98
2023-05-07T10:51:46.787Z,9.05
2023-05-07T10:54:22.073Z,10.95
2023-05-07T10:56:51.646Z,13.25
2023-05-07T10:59:41.805Z,14.55
2023-05-07T11:02:11.995Z,11.93
2023-05-07T11:04:42.684Z,11.45
2023-05-07T11:07:32.187Z,13.63
2023-05-07T11:10:08.691Z,11.55
2023-05-07T11:12:56.343Z,12.80
2023-05-07T11:15:45.397Z,15.25
2023-05-07T11:18:18.441Z,11.43
2023-05-07T11:20:52.980Z,13.73
2023-05-07T11:23:59.601Z,10.93
2023-05-07T11:26:29.274Z,11.80
2023-05-07T11:28:57.868Z,12.68
2023-05-07T11:31:29.577Z,11.77
2023-05-07T11:33:58.544Z,10.70
2023-05-07T11:36:33.616Z,11.27
2023-05-07T11:39:01.586Z,11.95
2023-05-07T11:41:36.874Z,10.43
2023-05-07T11:44:04.900Z,11.05
2023-05-07T11:46:32.931Z,12.85
2023-05-07T11:49:02.525Z,10.18
2023-05-07T11:51:32.779Z,10.52
2023-05-07T11:54:00.828Z,12.10
2023-05-07T11:56:28.930Z,10.45
2023-05-07T11:58:56.876Z,17.73
2023-05-07T12:01:24.823Z,18.58
2023-05-07T12:03:52.917Z,20.17
2023-05-07T12:06:21.229Z,21.65
2023-05-07T12:08:50.496Z,20.13
2023-05-07T12:11:24.183Z,18.05
2023-05-07T12:13:52.471Z,21.80
2023-05-07T12:16:21.253Z,19.73
2023-05-07T12:18:49.676Z,22.30
2023-05-07T12:21:18.332Z,21.95
2023-05-07T12:23:47.344Z,22.13
2023-05-07T12:26:16.696Z,30.88
2023-05-07T12:28:44.819Z,23.13
2023-05-07T12:31:12.895Z,22.30
2023-05-07T12:33:41.884Z,26.25
2023-05-07T12:36:10.417Z,26.85
2023-05-07T12:38:42.111Z,30.27
2023-05-07T12:41:11.983Z,23.77
2023-05-07T12:43:41.283Z,24.13
2023-05-07T12:46:10.012Z,25.67
2023-05-07T12:48:39.630Z,24.13
2023-05-07T12:51:08.660Z,22.67
2023-05-07T12:53:43.246Z,23.80
2023-05-07T12:56:11.283Z,27.25
2023-05-07T12:58:39.167Z,23.85
2023-05-07T13:01:11.008Z,25.13
2023-05-07T13:06:10.660Z,24.05
2023-05-07T13:08:41.362Z,24.20
2023-05-07T13:11:11.206Z,23.67
2023-05-07T13:13:40.849Z,26.27
2023-05-07T13:16:12.286Z,27.00
2023-05-07T13:18:41.822Z,23.83
2023-05-07T13:21:11.027Z,24.92
2023-05-07T13:23:39.646Z,24.23
2023-05-07T13:26:22.502Z,25.58
2023-05-07T13:28:54.116Z,26.05
2023-05-07T13:31:23.458Z,26.60
2023-05-07T13:33:51.585Z,24.77
2023-05-07T13:36:19.488Z,24.13
2023-05-07T13:38:47.437Z,26.02
2023-05-07T13:41:15.830Z,23.75
2023-05-07T13:43:43.784Z,27.27
2023-05-07T13:46:11.721Z,24.75
2023-05-07T13:48:40.970Z,26.75
2023-05-07T13:51:08.932Z,25.75
2023-05-07T13:53:36.894Z,28.67
2023-05-07T13:56:05.885Z,24.98
2023-05-07T13:58:33.964Z,26.08
2023-05-07T14:01:02.020Z,28.38
2023-05-07T14:03:30.786Z,27.83
2023-05-07T14:06:00.946Z,24.95
2023-05-07T14:08:31.805Z,26.98
2023-05-07T14:11:00.937Z,27.95
2023-05-07T14:13:29.071Z,26.55
2023-05-07T14:15:57.045Z,25.63
2023-05-07T14:18:24.941Z,25.40
2023-05-07T14:20:52.899Z,30.02
2023-05-07T14:23:27.339Z,31.05
2023-05-07T14:25:55.675Z,27.33
2023-05-07T14:28:23.650Z,28.35
2023-05-07T14:30:51.732Z,27.67
2023-05-07T14:33:19.711Z,26.02
2023-05-07T14:35:49.833Z,25.88
2023-05-07T14:38:17.920Z,29.30
2023-05-07T14:40:47.336Z,25.45
2023-05-07T14:43:15.231Z,27.50
2023-05-07T14:45:43.440Z,26.33
2023-05-07T14:48:15.969Z,25.23
2023-05-07T14:50:43.996Z,24.27
2023-05-07T14:53:11.922Z,25.67
2023-05-07T14:55:39.979Z,25.33
2023-05-07T14:58:09.342Z,24.85
2023-05-07T15:00:37.378Z,27.23
2023-05-07T15:03:09.018Z,25.25
2023-05-07T15:05:38.125Z,25.05
2023-05-07T15:08:06.453Z,29.92
2023-05-07T15:10:41.611Z,25.38
2023-05-07T15:13:15.277Z,22.35
2023-05-07T15:15:45.617Z,26.02
2023-05-07T15:18:13.570Z,26.27
2023-05-07T15:20:41.776Z,22.52
2023-05-07T15:23:12.971Z,23.73
2023-05-07T15:25:41.055Z,23.80
2023-05-07T15:28:10.337Z,20.23
2023-05-07T15:30:38.253Z,20.63
2023-05-07T15:33:06.507Z,19.27
2023-05-07T15:35:34.692Z,22.42
2023-05-07T15:38:03.974Z,24.77
2023-05-07T15:40:32.344Z,20.25
2023-05-07T15:43:01.151Z,21.02
2023-05-07T15:45:31.209Z,19.58
2023-05-07T15:47:59.384Z,17.52
2023-05-07T15:50:27.425Z,17.33
2023-05-07T15:52:56.956Z,17.17
2023-05-07T15:55:25.184Z,16.85
2023-05-07T15:57:55.012Z,15.88
2023-05-07T16:00:23.185Z,16.58
2023-05-07T16:02:52.571Z,13.30
2023-05-07T16:05:20.632Z,16.55
2023-05-07T16:07:49.021Z,14.32
2023-05-07T16:10:17.284Z,13.63
2023-05-07T16:12:46.018Z,14.20
2023-05-07T16:15:14.249Z,16.67
2023-05-07T16:17:42.247Z,16.67
2023-05-07T16:20:13.204Z,14.18
2023-05-07T16:22:41.407Z,16.63
2023-05-07T16:25:10.541Z,16.15
2023-05-07T16:27:38.581Z,19.63
2023-05-07T16:30:08.760Z,15.85
2023-05-07T16:32:37.004Z,18.83
2023-05-07T16:35:05.811Z,18.17
2023-05-07T16:37:37.657Z,20.88
2023-05-07T16:40:07.585Z,19.60
2023-05-07T16:42:35.572Z,20.75
2023-05-07T16:45:04.518Z,19.77
2023-05-07T16:47:32.700Z,28.20
2023-05-07T16:50:01.225Z,25.85
2023-05-07T16:52:30.800Z,28.05
2023-05-07T16:55:01.388Z,25.63
2023-05-07T16:57:30.389Z,22.55
2023-05-07T16:59:59.012Z,22.45
2023-05-07T17:02:27.075Z,23.52
2023-05-07T17:04:55.041Z,24.48
2023-05-07T17:07:22.934Z,24.27
2023-05-07T17:09:50.876Z,22.55
2023-05-07T17:12:20.349Z,25.50
2023-05-07T17:14:48.388Z,26.10
2023-05-07T17:17:16.354Z,25.33
2023-05-07T17:19:45.701Z,22.90
2023-05-07T17:22:13.664Z,28.55
2023-05-07T17:24:41.783Z,24.30
2023-05-07T17:27:09.944Z,19.45
2023-05-07T17:29:39.258Z,22.77
2023-05-07T17:32:08.451Z,20.20
2023-05-07T17:34:36.827Z,22.15
2023-05-07T17:37:04.783Z,20.23
2023-05-07T17:39:32.699Z,21.83
2023-05-07T17:42:00.654Z,21.13
2023-05-07T17:44:28.649Z,22.67
2023-05-07T17:46:57.991Z,24.88
2023-05-07T17:49:25.959Z,21.40
2023-05-07T17:51:55.556Z,20.92
2023-05-07T17:54:26.094Z,23.20
2023-05-07T17:56:54.652Z,20.90
2023-05-07T17:59:22.695Z,23.48
2023-05-07T18:01:50.773Z,21.67
2023-05-07T18:04:21.520Z,21.77
2023-05-07T18:06:49.483Z,20.48
2023-05-07T18:09:17.453Z,20.48
2023-05-07T18:11:45.378Z,17.70
2023-05-07T18:14:13.600Z,23.70
2023-05-07T18:16:41.549Z,18.75
2023-05-07T18:19:09.464Z,19.52
2023-05-07T18:21:38.714Z,20.65
2023-05-07T18:24:07.388Z,21.08
2023-05-07T18:26:35.536Z,21.98
2023-05-07T18:29:03.499Z,25.63
2023-05-07T18:31:31.444Z,22.48
2023-05-07T18:33:59.570Z,20.70
2023-05-07T18:36:28.202Z,20.15
2023-05-07T18:38:57.581Z,21.13
2023-05-07T18:41:25.661Z,20.27
2023-05-07T18:43:53.642Z,20.70
2023-05-07T18:46:21.592Z,18.58
2023-05-07T18:48:49.545Z,17.77
2023-05-07T18:51:17.690Z,18.85
2023-05-07T18:53:45.664Z,15.75
2023-05-07T18:56:15.188Z,18.33
2023-05-07T18:58:43.145Z,15.50
2023-05-07T19:01:11.190Z,16.35
2023-05-07T19:03:39.141Z,17.40
2023-05-07T19:06:07.535Z,16.15
2023-05-07T19:08:35.502Z,19.50
2023-05-07T19:11:03.852Z,16.17
2023-05-07T19:13:34.540Z,18.42
2023-05-07T19:16:02.518Z,17.20
2023-05-07T19:18:31.844Z,15.55
2023-05-07T19:20:59.761Z,16.08
2023-05-07T19:23:27.848Z,17.33
2023-05-07T19:25:55.812Z,17.15
2023-05-07T19:28:25.640Z,15.60
2023-05-07T19:30:54.936Z,15.25
2023-05-07T19:33:24.555Z,16.90
2023-05-07T19:35:53.962Z,20.60
2023-05-07T19:38:21.872Z,18.95
2023-05-07T19:40:49.867Z,17.67
2023-05-07T19:43:17.772Z,18.02
2023-05-07T19:45:45.804Z,17.80
2023-05-07T19:48:15.674Z,19.98
2023-05-07T19:50:44.075Z,18.30
2023-05-07T19:53:11.974Z,18.73
2023-05-07T19:55:39.921Z,20.45
2023-05-07T19:58:07.976Z,19.33
2023-05-07T20:00:36.155Z,21.75
2023-05-07T20:03:04.157Z,20.92
2023-05-07T20:05:33.600Z,23.42
2023-05-07T20:08:02.478Z,24.00
2023-05-07T20:10:30.447Z,27.52
2023-05-07T20:12:58.365Z,27.02
2023-05-07T20:15:26.346Z,23.50
2023-05-07T20:17:54.282Z,23.73
2023-05-07T20:20:23.942Z,23.35
2023-05-07T20:22:53.380Z,26.95
2023-05-07T20:25:21.528Z,24.67
2023-05-07T20:27:49.474Z,22.55
2023-05-07T20:30:18.865Z,24.35
2023-05-07T20:32:46.831Z,24.35
2023-05-07T20:35:14.902Z,24.13
2023-05-07T20:37:42.872Z,24.42
2023-05-07T20:40:12.824Z,27.50
2023-05-07T20:42:42.630Z,28.73
2023-05-07T20:45:12.091Z,29.90
2023-05-07T20:47:40.036Z,30.88
2023-05-07T20:50:08.649Z,34.22
2023-05-07T20:52:36.752Z,38.53
2023-05-07T20:55:05.089Z,38.88
2023-05-07T20:57:34.399Z,37.05
2023-05-07T21:00:02.322Z,37.83
2023-05-07T21:02:30.411Z,42.30
2023-05-07T21:04:58.483Z,36.03
2023-05-07T21:07:26.512Z,35.60
2023-05-07T21:09:54.417Z,38.28
2023-05-07T21:12:23.636Z,36.63
2023-05-07T21:14:52.809Z,39.25
2023-05-07T21:17:20.736Z,40.60
2023-05-07T21:19:49.661Z,42.72
2023-05-07T21:22:19.864Z,40.58
2023-05-07T21:24:47.761Z,37.47
2023-05-07T21:27:15.823Z,40.72
2023-05-07T21:29:43.714Z,43.63
2023-05-07T21:32:12.964Z,40.90
2023-05-07T21:34:40.865Z,38.78
2023-05-07T21:37:09.118Z,41.33
2023-05-07T21:39:37.209Z,39.63
2023-05-07T21:42:05.504Z,43.08
2023-05-07T21:44:33.567Z,40.28
2023-05-07T21:47:01.622Z,39.45
2023-05-07T21:49:31.192Z,43.05
2023-05-07T21:51:59.225Z,42.05
2023-05-07T21:54:27.131Z,41.75
2023-05-07T21:56:56.097Z,39.50
2023-05-07T21:59:24.169Z,40.90
2023-05-07T22:01:52.140Z,41.55
2023-05-07T22:04:20.345Z,38.63
2023-05-07T22:06:50.076Z,39.30
2023-05-07T22:09:18.046Z,43.00
2023-05-07T22:11:46.254Z,44.33
2023-05-07T22:14:14.128Z,45.17
2023-05-07T22:16:42.147Z,42.50
2023-05-07T22:19:10.516Z,39.50
2023-05-07T22:21:38.413Z,41.65
2023-05-07T22:24:08.580Z,38.92
2023-05-07T22:26:36.444Z,35.47
2023-05-07T22:29:04.381Z,37.22
2023-05-07T22:31:32.361Z,41.70
2023-05-07T22:34:01.224Z,37.35
2023-05-07T22:36:29.174Z,39.80
2023-05-07T22:38:57.179Z,40.17
2023-05-07T22:41:26.603Z,44.90
2023-05-07T22:43:54.536Z,42.88
2023-05-07T22:46:22.511Z,42.85
2023-05-07T22:48:50.535Z,41.47
2023-05-07T22:51:18.543Z,40.85
2023-05-07T22:53:46.840Z,47.80
2023-05-07T22:56:15.732Z,45.35
2023-05-07T22:58:44.981Z,49.13
2023-05-07T23:01:13.964Z,52.30
2023-05-07T23:03:42.127Z,50.13
2023-05-07T23:06:10.639Z,51.67
2023-05-07T23:08:38.572Z,57.47
2023-05-07T23:11:06.596Z,52.40
2023-05-07T23:13:34.850Z,58.83
2023-05-07T23:16:04.344Z,56.28
2023-05-07T23:18:32.643Z,57.05
2023-05-07T23:21:00.590Z,55.25
2023-05-07T23:23:33.469Z,59.60
2023-05-07T23:26:01.386Z,59.28
2023-05-07T23:28:29.264Z,62.60
2023-05-07T23:30:57.278Z,62.17
2023-05-07T23:33:26.551Z,60.60
2023-05-07T23:36:02.993Z,59.92
2023-05-07T23:38:31.151Z,54.83
2023-05-07T23:40:59.205Z,60.00
2023-05-07T23:43:27.625Z,56.42
2023-05-07T23:45:55.502Z,56.10
2023-05-07T23:48:23.500Z,66.95
2023-05-07T23:50:52.778Z,56.40
2023-05-07T23:53:20.881Z,65.28
2023-05-07T23:55:48.761Z,63.22
2023-05-07T23:58:16.651Z,63.20
